sensor_id;sensor_type;location;lat;lon;timestamp;pressure;altitude;pressure_sealevel;temperature;humidity
3254;BME280;1639;42.804;23.342;2022-07-06T00:01:25;71967.25;;;-148.52;100.00
3254;BME280;1639;42.804;23.342;2022-07-06T00:03:50;71971.41;;;-148.52;100.00
3254;BME280;1639;42.804;23.342;2022-07-06T00:06:16;71959.00;;;-148.52;100.00
3254;BME280;1639;42.804;23.342;2022-07-06T00:08:42;71971.41;;;-148.52;100.00
3254;BME280;1639;42.804;23.342;2022-07-06T00:11:08;71967.25;;;-148.52;100.00
3254;BME280;1639;42.804;23.342;2022-07-06T00:13:33;71971.41;;;-148.52;100.00
3254;BME280;1639;42.804;23.342;2022-07-06T00:15:59;71973.47;;;-148.52;100.00
3254;BME280;1639;42.804;23.342;2022-07-06T00:18:24;71985.88;;;-148.52;100.00
3254;BME280;1639;42.804;23.342;2022-07-06T00:20:50;71985.88;;;-148.52;100.00
3254;BME280;1639;42.804;23.342;2022-07-06T00:23:15;71992.06;;;-148.52;100.00
3254;BME280;1639;42.804;23.342;2022-07-06T00:25:41;72012.75;;;-148.52;100.00
3254;BME280;1639;42.804;23.342;2022-07-06T00:28:06;72010.69;;;-148.52;100.00
3254;BME280;1639;42.804;23.342;2022-07-06T00:30:32;72010.69;;;-148.52;100.00
3254;BME280;1639;42.804;23.342;2022-07-06T00:32:57;71996.22;;;-148.52;100.00
3254;BME280;1639;42.804;23.342;2022-07-06T00:35:24;72016.88;;;-148.52;100.00
3254;BME280;1639;42.804;23.342;2022-07-06T00:37:49;72033.44;;;-148.52;100.00
3254;BME280;1639;42.804;23.342;2022-07-06T00:40:15;72037.56;;;-148.52;100.00
3254;BME280;1639;42.804;23.342;2022-07-06T00:42:44;72037.56;;;-148.52;100.00
3254;BME280;1639;42.804;23.342;2022-07-06T00:45:10;72049.97;;;-148.52;100.00
3254;BME280;1639;42.804;23.342;2022-07-06T00:47:37;72054.09;;;-148.52;100.00
3254;BME280;1639;42.804;23.342;2022-07-06T00:50:03;72060.31;;;-148.52;100.00
3254;BME280;1639;42.804;23.342;2022-07-06T00:52:58;72045.84;;;-148.52;100.00
3254;BME280;1639;42.804;23.342;2022-07-06T00:55:26;72016.88;;;-148.52;100.00
3254;BME280;1639;42.804;23.342;2022-07-06T00:57:53;72004.47;;;-148.52;100.00
3254;BME280;1639;42.804;23.342;2022-07-06T01:00:24;71975.53;;;-148.52;100.00
3254;BME280;1639;42.804;23.342;2022-07-06T01:02:51;71967.25;;;-148.52;100.00
3254;BME280;1639;42.804;23.342;2022-07-06T01:05:17;71942.44;;;-148.52;100.00
3254;BME280;1639;42.804;23.342;2022-07-06T01:07:45;71938.31;;;-148.52;100.00
3254;BME280;1639;42.804;23.342;2022-07-06T01:10:12;71950.72;;;-148.52;100.00
3254;BME280;1639;42.804;23.342;2022-07-06T01:12:40;71948.66;;;-148.52;100.00
3254;BME280;1639;42.804;23.342;2022-07-06T01:15:09;71930.03;;;-148.52;100.00
3254;BME280;1639;42.804;23.342;2022-07-06T01:17:35;71923.84;;;-148.52;100.00
3254;BME280;1639;42.804;23.342;2022-07-06T01:20:23;71930.03;;;-148.52;99.86
3254;BME280;1639;42.804;23.342;2022-07-06T01:22:50;71952.78;;;-148.52;100.00
3254;BME280;1639;42.804;23.342;2022-07-06T01:25:17;71979.66;;;-148.52;100.00
3254;BME280;1639;42.804;23.342;2022-07-06T01:27:44;71987.94;;;-148.52;100.00
3254;BME280;1639;42.804;23.342;2022-07-06T01:30:15;71979.66;;;-148.52;100.00
3254;BME280;1639;42.804;23.342;2022-07-06T01:32:42;71990.00;;;-148.52;100.00
3254;BME280;1639;42.804;23.342;2022-07-06T01:35:10;71992.06;;;-148.52;100.00
3254;BME280;1639;42.804;23.342;2022-07-06T01:37:36;71996.22;;;-148.52;100.00
3254;BME280;1639;42.804;23.342;2022-07-06T01:40:04;72008.63;;;-148.52;100.00
3254;BME280;1639;42.804;23.342;2022-07-06T01:42:29;72029.28;;;-148.52;100.00
3254;BME280;1639;42.804;23.342;2022-07-06T01:44:55;72023.09;;;-148.52;100.00
3254;BME280;1639;42.804;23.342;2022-07-06T01:47:20;72035.50;;;-148.52;100.00
3254;BME280;1639;42.804;23.342;2022-07-06T01:49:46;72039.63;;;-148.52;100.00
3254;BME280;1639;42.804;23.342;2022-07-06T01:52:12;72049.97;;;-148.52;100.00
3254;BME280;1639;42.804;23.342;2022-07-06T01:54:37;72045.84;;;-148.52;100.00
3254;BME280;1639;42.804;23.342;2022-07-06T01:57:03;72058.25;;;-148.52;100.00
3254;BME280;1639;42.804;23.342;2022-07-06T01:59:29;72052.03;;;-148.52;100.00
3254;BME280;1639;42.804;23.342;2022-07-06T02:01:54;72039.63;;;-148.52;100.00
3254;BME280;1639;42.804;23.342;2022-07-06T02:04:19;72033.44;;;-148.52;100.00
3254;BME280;1639;42.804;23.342;2022-07-06T02:06:45;72049.97;;;-148.52;100.00
3254;BME280;1639;42.804;23.342;2022-07-06T02:09:10;72058.25;;;-148.52;100.00
3254;BME280;1639;42.804;23.342;2022-07-06T02:11:36;72058.25;;;-148.52;100.00
3254;BME280;1639;42.804;23.342;2022-07-06T02:14:01;72047.91;;;-148.52;100.00
3254;BME280;1639;42.804;23.342;2022-07-06T02:16:26;72058.25;;;-148.52;100.00
3254;BME280;1639;42.804;23.342;2022-07-06T02:18:52;72064.44;;;-148.52;100.00
3254;BME280;1639;42.804;23.342;2022-07-06T02:21:17;72058.25;;;-148.52;100.00
3254;BME280;1639;42.804;23.342;2022-07-06T02:23:43;72058.25;;;-148.52;100.00
3254;BME280;1639;42.804;23.342;2022-07-06T02:26:08;72049.97;;;-148.52;100.00
3254;BME280;1639;42.804;23.342;2022-07-06T02:28:34;72076.84;;;-148.52;100.00
3254;BME280;1639;42.804;23.342;2022-07-06T02:30:59;72083.06;;;-148.52;100.00
3254;BME280;1639;42.804;23.342;2022-07-06T02:33:25;72093.41;;;-148.52;100.00
3254;BME280;1639;42.804;23.342;2022-07-06T02:35:50;72095.47;;;-148.52;100.00
3254;BME280;1639;42.804;23.342;2022-07-06T02:38:16;72097.53;;;-148.52;100.00
3254;BME280;1639;42.804;23.342;2022-07-06T02:40:41;72101.66;;;-148.52;100.00
3254;BME280;1639;42.804;23.342;2022-07-06T02:43:07;72099.59;;;-148.52;100.00
3254;BME280;1639;42.804;23.342;2022-07-06T02:45:33;72112.00;;;-148.52;100.00
3254;BME280;1639;42.804;23.342;2022-07-06T02:47:58;72118.22;;;-148.52;100.00
3254;BME280;1639;42.804;23.342;2022-07-06T02:50:24;72120.28;;;-148.52;100.00
3254;BME280;1639;42.804;23.342;2022-07-06T02:52:50;72116.13;;;-148.52;100.00
3254;BME280;1639;42.804;23.342;2022-07-06T02:55:16;72126.47;;;-148.52;100.00
3254;BME280;1639;42.804;23.342;2022-07-06T02:57:42;72132.69;;;-148.52;100.00
3254;BME280;1639;42.804;23.342;2022-07-06T03:00:08;72145.09;;;-148.52;100.00
3254;BME280;1639;42.804;23.342;2022-07-06T03:02:34;72140.94;;;-148.52;100.00
3254;BME280;1639;42.804;23.342;2022-07-06T03:05:00;72128.53;;;-148.52;100.00
3254;BME280;1639;42.804;23.342;2022-07-06T03:07:25;72134.75;;;-148.52;100.00
3254;BME280;1639;42.804;23.342;2022-07-06T03:09:51;72132.69;;;-148.52;100.00
3254;BME280;1639;42.804;23.342;2022-07-06T03:12:16;72140.94;;;-148.52;100.00
3254;BME280;1639;42.804;23.342;2022-07-06T03:14:42;72149.22;;;-148.52;100.00
3254;BME280;1639;42.804;23.342;2022-07-06T03:17:08;72147.16;;;-148.52;100.00
3254;BME280;1639;42.804;23.342;2022-07-06T03:19:33;72149.22;;;-148.52;100.00
3254;BME280;1639;42.804;23.342;2022-07-06T03:21:59;72151.28;;;-148.52;100.00
3254;BME280;1639;42.804;23.342;2022-07-06T03:24:24;72167.84;;;-148.52;100.00
3254;BME280;1639;42.804;23.342;2022-07-06T03:26:50;72165.75;;;-148.52;100.00
3254;BME280;1639;42.804;23.342;2022-07-06T03:29:15;72174.03;;;-148.52;100.00
3254;BME280;1639;42.804;23.342;2022-07-06T03:31:41;72151.28;;;-148.52;100.00
3254;BME280;1639;42.804;23.342;2022-07-06T03:34:06;72147.16;;;-148.52;100.00
3254;BME280;1639;42.804;23.342;2022-07-06T03:36:31;72126.47;;;-148.52;100.00
3254;BME280;1639;42.804;23.342;2022-07-06T03:38:57;72116.13;;;-148.52;100.00
3254;BME280;1639;42.804;23.342;2022-07-06T03:41:22;72116.13;;;-148.52;100.00
3254;BME280;1639;42.804;23.342;2022-07-06T03:43:48;72118.22;;;-148.52;100.00
3254;BME280;1639;42.804;23.342;2022-07-06T03:46:13;72109.94;;;-148.52;100.00
3254;BME280;1639;42.804;23.342;2022-07-06T03:48:38;72103.72;;;-148.52;100.00
3254;BME280;1639;42.804;23.342;2022-07-06T03:51:04;72105.81;;;-148.52;100.00
3254;BME280;1639;42.804;23.342;2022-07-06T03:53:29;72093.41;;;-148.52;100.00
3254;BME280;1639;42.804;23.342;2022-07-06T03:55:55;72087.19;;;-148.52;100.00
3254;BME280;1639;42.804;23.342;2022-07-06T03:58:39;72074.78;;;-148.52;100.00
3254;BME280;1639;42.804;23.342;2022-07-06T04:01:04;72078.91;;;-148.52;100.00
3254;BME280;1639;42.804;23.342;2022-07-06T04:03:30;72076.84;;;-148.52;100.00
3254;BME280;1639;42.804;23.342;2022-07-06T04:05:55;72091.31;;;-148.52;100.00
3254;BME280;1639;42.804;23.342;2022-07-06T04:08:21;72099.59;;;-148.52;100.00
3254;BME280;1639;42.804;23.342;2022-07-06T04:10:46;72091.31;;;-148.52;100.00
3254;BME280;1639;42.804;23.342;2022-07-06T04:13:12;72087.19;;;-148.52;100.00
3254;BME280;1639;42.804;23.342;2022-07-06T04:15:37;72076.84;;;-148.52;100.00
3254;BME280;1639;42.804;23.342;2022-07-06T04:18:03;72078.91;;;-148.52;100.00
3254;BME280;1639;42.804;23.342;2022-07-06T04:20:28;72091.31;;;-148.52;100.00
3254;BME280;1639;42.804;23.342;2022-07-06T04:22:54;72093.41;;;-148.52;100.00
3254;BME280;1639;42.804;23.342;2022-07-06T04:25:19;72085.13;;;-148.52;100.00
3254;BME280;1639;42.804;23.342;2022-07-06T04:27:45;72083.06;;;-148.52;100.00
3254;BME280;1639;42.804;23.342;2022-07-06T04:30:11;72099.59;;;-148.52;100.00
3254;BME280;1639;42.804;23.342;2022-07-06T04:32:36;72089.25;;;-148.52;100.00
3254;BME280;1639;42.804;23.342;2022-07-06T04:35:04;72074.78;;;-148.52;100.00
3254;BME280;1639;42.804;23.342;2022-07-06T04:37:30;72072.72;;;-148.52;100.00
3254;BME280;1639;42.804;23.342;2022-07-06T04:39:55;72047.91;;;-148.52;99.46
3254;BME280;1639;42.804;23.342;2022-07-06T04:42:21;72039.63;;;-148.52;99.44
3254;BME280;1639;42.804;23.342;2022-07-06T04:44:46;72035.50;;;-148.52;97.71
3254;BME280;1639;42.804;23.342;2022-07-06T04:47:12;72008.63;;;-148.52;96.98
3254;BME280;1639;42.804;23.342;2022-07-06T04:49:38;71996.22;;;-148.52;96.59
3254;BME280;1639;42.804;23.342;2022-07-06T04:52:04;71996.22;;;-148.52;98.64
3254;BME280;1639;42.804;23.342;2022-07-06T04:54:29;71996.22;;;-148.52;96.84
3254;BME280;1639;42.804;23.342;2022-07-06T04:56:55;71990.00;;;-148.52;97.45
3254;BME280;1639;42.804;23.342;2022-07-06T04:59:20;71975.53;;;-148.52;97.41
3254;BME280;1639;42.804;23.342;2022-07-06T05:01:45;71967.25;;;-148.52;98.58
3254;BME280;1639;42.804;23.342;2022-07-06T05:04:11;71952.78;;;-148.52;98.49
3254;BME280;1639;42.804;23.342;2022-07-06T05:06:36;71940.38;;;-148.52;98.68
3254;BME280;1639;42.804;23.342;2022-07-06T05:09:02;71927.97;;;-148.52;95.92
3254;BME280;1639;42.804;23.342;2022-07-06T05:11:28;71930.03;;;-148.52;93.58
3254;BME280;1639;42.804;23.342;2022-07-06T05:13:53;71936.25;;;-148.52;92.83
3254;BME280;1639;42.804;23.342;2022-07-06T05:16:20;71934.19;;;-148.52;94.01
3254;BME280;1639;42.804;23.342;2022-07-06T05:18:46;71948.66;;;-148.52;92.66
3254;BME280;1639;42.804;23.342;2022-07-06T05:21:11;71961.06;;;-148.52;91.55
3254;BME280;1639;42.804;23.342;2022-07-06T05:23:36;71981.75;;;-148.52;92.29
3254;BME280;1639;42.804;23.342;2022-07-06T05:26:02;71979.66;;;-148.52;92.55
3254;BME280;1639;42.804;23.342;2022-07-06T05:28:27;71959.00;;;-148.52;93.28
3254;BME280;1639;42.804;23.342;2022-07-06T05:30:53;71942.44;;;-148.52;92.74
3254;BME280;1639;42.804;23.342;2022-07-06T05:33:18;71934.19;;;-148.52;92.65
3254;BME280;1639;42.804;23.342;2022-07-06T05:35:44;71921.78;;;-148.52;92.97
3254;BME280;1639;42.804;23.342;2022-07-06T05:38:09;71894.91;;;-148.52;92.61
3254;BME280;1639;42.804;23.342;2022-07-06T05:40:35;71868.00;;;-148.52;92.88
3254;BME280;1639;42.804;23.342;2022-07-06T05:43:01;71863.88;;;-148.52;92.90
3254;BME280;1639;42.804;23.342;2022-07-06T05:45:26;71865.94;;;-148.52;93.18
3254;BME280;1639;42.804;23.342;2022-07-06T05:47:51;71884.56;;;-148.52;91.56
3254;BME280;1639;42.804;23.342;2022-07-06T05:50:35;71896.97;;;-148.52;91.69
3254;BME280;1639;42.804;23.342;2022-07-06T05:53:03;71919.72;;;-148.52;90.88
3254;BME280;1639;42.804;23.342;2022-07-06T05:55:29;71917.63;;;-148.52;91.74
3254;BME280;1639;42.804;23.342;2022-07-06T05:57:55;71913.50;;;-148.52;92.20
3254;BME280;1639;42.804;23.342;2022-07-06T06:00:21;71901.09;;;-148.52;91.34
3254;BME280;1639;42.804;23.342;2022-07-06T06:02:47;71896.97;;;-148.52;90.76
3254;BME280;1639;42.804;23.342;2022-07-06T06:05:13;71896.97;;;-148.52;91.09
3254;BME280;1639;42.804;23.342;2022-07-06T06:07:39;71876.28;;;-148.52;91.08
3254;BME280;1639;42.804;23.342;2022-07-06T06:10:07;71865.94;;;-148.52;91.77
3254;BME280;1639;42.804;23.342;2022-07-06T06:12:32;71845.28;;;-148.52;91.10
3254;BME280;1639;42.804;23.342;2022-07-06T06:14:58;71847.34;;;-148.52;89.24
3254;BME280;1639;42.804;23.342;2022-07-06T06:17:23;71832.88;;;-148.52;89.47
3254;BME280;1639;42.804;23.342;2022-07-06T06:19:49;71839.06;;;-148.52;88.78
3254;BME280;1639;42.804;23.342;2022-07-06T06:22:14;71824.59;;;-148.52;88.67
3254;BME280;1639;42.804;23.342;2022-07-06T06:24:40;71834.94;;;-148.52;87.83
3254;BME280;1639;42.804;23.342;2022-07-06T06:27:05;71837.00;;;-148.52;88.98
3254;BME280;1639;42.804;23.342;2022-07-06T06:29:31;71837.00;;;-148.52;88.05
3254;BME280;1639;42.804;23.342;2022-07-06T06:31:56;71820.47;;;-148.52;88.12
3254;BME280;1639;42.804;23.342;2022-07-06T06:34:21;71818.38;;;-148.52;86.40
3254;BME280;1639;42.804;23.342;2022-07-06T06:36:47;71818.38;;;-148.52;86.20
3254;BME280;1639;42.804;23.342;2022-07-06T06:39:13;71806.00;;;-148.52;86.04
3254;BME280;1639;42.804;23.342;2022-07-06T06:41:38;71789.44;;;-148.52;86.55
3254;BME280;1639;42.804;23.342;2022-07-06T06:44:03;71781.19;;;-148.52;85.37
3254;BME280;1639;42.804;23.342;2022-07-06T06:46:29;71764.63;;;-148.52;84.91
3254;BME280;1639;42.804;23.342;2022-07-06T06:48:54;71768.78;;;-148.52;84.94
3254;BME280;1639;42.804;23.342;2022-07-06T06:51:20;71756.38;;;-148.52;85.46
3254;BME280;1639;42.804;23.342;2022-07-06T06:53:46;71748.09;;;-148.52;84.10
3254;BME280;1639;42.804;23.342;2022-07-06T06:56:12;71756.38;;;-148.52;83.87
3254;BME280;1639;42.804;23.342;2022-07-06T06:58:37;71756.38;;;-148.52;84.77
3254;BME280;1639;42.804;23.342;2022-07-06T07:01:03;71760.50;;;-148.52;86.27
3254;BME280;1639;42.804;23.342;2022-07-06T07:03:29;71760.50;;;-148.52;84.08
3254;BME280;1639;42.804;23.342;2022-07-06T07:05:55;71758.44;;;-148.52;85.35
3254;BME280;1639;42.804;23.342;2022-07-06T07:08:20;71783.25;;;-148.52;84.39
3254;BME280;1639;42.804;23.342;2022-07-06T07:10:46;71772.91;;;-148.52;85.10
3254;BME280;1639;42.804;23.342;2022-07-06T07:13:11;71748.09;;;-148.52;86.16
3254;BME280;1639;42.804;23.342;2022-07-06T07:15:36;71735.69;;;-148.52;83.26
3254;BME280;1639;42.804;23.342;2022-07-06T07:18:02;71729.50;;;-148.52;83.93
3254;BME280;1639;42.804;23.342;2022-07-06T07:20:27;71725.34;;;-148.52;83.63
3254;BME280;1639;42.804;23.342;2022-07-06T07:22:55;71729.50;;;-148.52;82.99
3254;BME280;1639;42.804;23.342;2022-07-06T07:25:20;71719.16;;;-148.52;83.04
3254;BME280;1639;42.804;23.342;2022-07-06T07:27:46;71681.94;;;-148.52;82.91
3254;BME280;1639;42.804;23.342;2022-07-06T07:30:11;71642.66;;;-148.52;81.30
3254;BME280;1639;42.804;23.342;2022-07-06T07:32:36;71613.69;;;-148.52;80.46
3254;BME280;1639;42.804;23.342;2022-07-06T07:35:03;71605.44;;;-148.52;80.27
3254;BME280;1639;42.804;23.342;2022-07-06T07:37:29;71613.69;;;-148.52;79.42
3254;BME280;1639;42.804;23.342;2022-07-06T07:39:54;71593.03;;;-148.52;78.80
3254;BME280;1639;42.804;23.342;2022-07-06T07:42:20;71590.97;;;-148.52;79.49
3254;BME280;1639;42.804;23.342;2022-07-06T07:44:45;71582.69;;;-148.52;79.96
3254;BME280;1639;42.804;23.342;2022-07-06T07:47:11;71593.03;;;-148.52;79.18
3254;BME280;1639;42.804;23.342;2022-07-06T07:49:36;71562.03;;;-148.52;80.68
3254;BME280;1639;42.804;23.342;2022-07-06T07:52:02;71508.25;;;-148.52;77.27
3254;BME280;1639;42.804;23.342;2022-07-06T07:54:27;71466.91;;;-148.52;75.12
3254;BME280;1639;42.804;23.342;2022-07-06T07:56:52;71435.91;;;-148.52;73.27
3254;BME280;1639;42.804;23.342;2022-07-06T07:59:19;71429.69;;;-148.52;75.46
3254;BME280;1639;42.804;23.342;2022-07-06T08:01:44;71444.19;;;-148.52;72.85
3254;BME280;1639;42.804;23.342;2022-07-06T08:04:10;71487.59;;;-148.52;71.25
3254;BME280;1639;42.804;23.342;2022-07-06T08:06:35;71462.78;;;-148.52;72.61
3254;BME280;1639;42.804;23.342;2022-07-06T08:09:00;71431.78;;;-148.52;73.50
3254;BME280;1639;42.804;23.342;2022-07-06T08:11:28;71462.78;;;-148.52;70.71
3254;BME280;1639;42.804;23.342;2022-07-06T08:13:53;71471.06;;;-148.52;72.67
3254;BME280;1639;42.804;23.342;2022-07-06T08:16:19;71454.50;;;-148.52;73.45
3254;BME280;1639;42.804;23.342;2022-07-06T08:18:44;71462.78;;;-148.52;72.76
3254;BME280;1639;42.804;23.342;2022-07-06T08:21:10;71479.31;;;-148.52;75.17
3254;BME280;1639;42.804;23.342;2022-07-06T08:23:36;71448.31;;;-148.52;74.98
3254;BME280;1639;42.804;23.342;2022-07-06T08:26:02;71421.44;;;-148.52;73.97
3254;BME280;1639;42.804;23.342;2022-07-06T08:28:28;71411.09;;;-148.52;73.57
3254;BME280;1639;42.804;23.342;2022-07-06T08:30:53;71417.28;;;-148.52;71.88
3254;BME280;1639;42.804;23.342;2022-07-06T08:33:20;71413.16;;;-148.52;71.96
3254;BME280;1639;42.804;23.342;2022-07-06T08:35:46;71388.34;;;-148.52;71.70
3254;BME280;1639;42.804;23.342;2022-07-06T08:38:11;71406.97;;;-148.52;69.14
3254;BME280;1639;42.804;23.342;2022-07-06T08:40:38;71413.16;;;-148.52;69.52
3254;BME280;1639;42.804;23.342;2022-07-06T08:43:05;71427.63;;;-148.52;71.49
3254;BME280;1639;42.804;23.342;2022-07-06T08:45:30;71442.09;;;-148.52;73.18
3254;BME280;1639;42.804;23.342;2022-07-06T08:47:59;71446.25;;;-148.52;72.58
3254;BME280;1639;42.804;23.342;2022-07-06T08:50:28;71464.84;;;-148.52;73.52
3254;BME280;1639;42.804;23.342;2022-07-06T08:52:54;71493.78;;;-148.52;73.55
3254;BME280;1639;42.804;23.342;2022-07-06T08:55:19;71516.53;;;-148.52;73.16
3254;BME280;1639;42.804;23.342;2022-07-06T08:57:48;71553.75;;;-148.52;75.75
3254;BME280;1639;42.804;23.342;2022-07-06T09:00:14;71553.75;;;-148.52;75.04
3254;BME280;1639;42.804;23.342;2022-07-06T09:02:40;71547.53;;;-148.52;75.73
3254;BME280;1639;42.804;23.342;2022-07-06T09:05:06;71549.63;;;-148.52;77.09
3254;BME280;1639;42.804;23.342;2022-07-06T09:07:34;71491.72;;;-148.52;76.64
3254;BME280;1639;42.804;23.342;2022-07-06T09:10:00;71456.56;;;-148.52;73.70
3254;BME280;1639;42.804;23.342;2022-07-06T09:12:27;71433.84;;;-148.52;73.53
3254;BME280;1639;42.804;23.342;2022-07-06T09:14:56;71425.56;;;-148.52;72.33
3254;BME280;1639;42.804;23.342;2022-07-06T09:17:25;71442.09;;;-148.52;73.31
3254;BME280;1639;42.804;23.342;2022-07-06T09:19:51;71471.06;;;-148.52;73.20
3254;BME280;1639;42.804;23.342;2022-07-06T09:22:28;71487.59;;;-148.52;73.60
3254;BME280;1639;42.804;23.342;2022-07-06T09:25:07;71502.06;;;-148.52;75.63
3254;BME280;1639;42.804;23.342;2022-07-06T09:27:38;71504.13;;;-148.52;75.45
3254;BME280;1639;42.804;23.342;2022-07-06T09:30:05;71514.47;;;-148.52;74.91
3254;BME280;1639;42.804;23.342;2022-07-06T09:32:38;71516.53;;;-148.52;75.15
3254;BME280;1639;42.804;23.342;2022-07-06T09:35:05;71520.66;;;-148.52;74.56
3254;BME280;1639;42.804;23.342;2022-07-06T09:37:30;71528.94;;;-148.52;74.52
3254;BME280;1639;42.804;23.342;2022-07-06T09:39:55;71516.53;;;-148.52;75.03
3254;BME280;1639;42.804;23.342;2022-07-06T09:42:25;71491.72;;;-148.52;73.82
3254;BME280;1639;42.804;23.342;2022-07-06T09:44:51;71473.13;;;-148.52;75.03
3254;BME280;1639;42.804;23.342;2022-07-06T09:47:17;71466.91;;;-148.52;73.68
3254;BME280;1639;42.804;23.342;2022-07-06T09:49:45;71468.97;;;-148.52;73.72
3254;BME280;1639;42.804;23.342;2022-07-06T09:52:11;71473.13;;;-148.52;73.48
3254;BME280;1639;42.804;23.342;2022-07-06T09:54:38;71464.84;;;-148.52;74.57
3254;BME280;1639;42.804;23.342;2022-07-06T09:57:05;71446.25;;;-148.52;72.81
3254;BME280;1639;42.804;23.342;2022-07-06T09:59:32;71450.38;;;-148.52;72.56
3254;BME280;1639;42.804;23.342;2022-07-06T10:02:00;71429.69;;;-148.52;72.79
3254;BME280;1639;42.804;23.342;2022-07-06T10:04:27;71419.38;;;-148.52;72.05
3254;BME280;1639;42.804;23.342;2022-07-06T10:06:54;71392.50;;;-148.52;72.74
3254;BME280;1639;42.804;23.342;2022-07-06T10:09:21;71353.22;;;-148.52;73.41
3254;BME280;1639;42.804;23.342;2022-07-06T10:11:51;71340.81;;;-148.52;70.88
3254;BME280;1639;42.804;23.342;2022-07-06T10:14:24;71344.94;;;-148.52;72.03
3254;BME280;1639;42.804;23.342;2022-07-06T10:16:51;71371.81;;;-148.52;71.52
3254;BME280;1639;42.804;23.342;2022-07-06T10:19:19;71313.94;;;-148.52;72.06
3254;BME280;1639;42.804;23.342;2022-07-06T10:21:45;71330.47;;;-148.52;67.65
3254;BME280;1639;42.804;23.342;2022-07-06T10:24:11;71359.41;;;-148.52;68.77
3254;BME280;1639;42.804;23.342;2022-07-06T10:26:38;71361.47;;;-148.52;69.96
3254;BME280;1639;42.804;23.342;2022-07-06T10:29:05;71363.53;;;-148.52;70.63
3254;BME280;1639;42.804;23.342;2022-07-06T10:31:31;71328.41;;;-148.52;69.23
3254;BME280;1639;42.804;23.342;2022-07-06T10:34:01;71318.06;;;-148.52;68.42
3254;BME280;1639;42.804;23.342;2022-07-06T10:36:28;71264.31;;;-148.52;69.04
3254;BME280;1639;42.804;23.342;2022-07-06T10:38:54;71218.84;;;-148.52;67.67
3254;BME280;1639;42.804;23.342;2022-07-06T10:41:33;71175.41;;;-148.52;66.35
3254;BME280;1639;42.804;23.342;2022-07-06T10:44:18;71163.00;;;-148.52;58.53
3254;BME280;1639;42.804;23.342;2022-07-06T10:46:59;71158.88;;;-148.52;57.98
3254;BME280;1639;42.804;23.342;2022-07-06T10:49:27;71187.81;;;-148.52;57.60
3254;BME280;1639;42.804;23.342;2022-07-06T10:51:52;71179.56;;;-148.52;55.04
3254;BME280;1639;42.804;23.342;2022-07-06T10:54:19;71140.28;;;-148.52;55.32
3254;BME280;1639;42.804;23.342;2022-07-06T10:56:48;71134.06;;;-148.52;53.67
3254;BME280;1639;42.804;23.342;2022-07-06T10:59:17;71136.13;;;-148.52;54.28
3254;BME280;1639;42.804;23.342;2022-07-06T11:02:17;71101.00;;;-148.52;51.98
3254;BME280;1639;42.804;23.342;2022-07-06T11:04:44;71092.72;;;-148.52;52.68
3254;BME280;1639;42.804;23.342;2022-07-06T11:07:12;71078.25;;;-148.52;51.15
3254;BME280;1639;42.804;23.342;2022-07-06T11:09:38;71092.72;;;-148.52;50.71
3254;BME280;1639;42.804;23.342;2022-07-06T11:12:16;71173.34;;;-148.52;50.83
3254;BME280;1639;42.804;23.342;2022-07-06T11:14:44;71206.44;;;-148.52;52.42
3254;BME280;1639;42.804;23.342;2022-07-06T11:17:10;71202.28;;;-148.52;52.66
3254;BME280;1639;42.804;23.342;2022-07-06T11:19:36;71189.88;;;-148.52;53.08
3254;BME280;1639;42.804;23.342;2022-07-06T11:22:07;71160.94;;;-148.52;54.24
3254;BME280;1639;42.804;23.342;2022-07-06T11:24:35;71148.53;;;-148.52;52.24
3254;BME280;1639;42.804;23.342;2022-07-06T11:27:01;71111.34;;;-148.52;52.34
3254;BME280;1639;42.804;23.342;2022-07-06T11:29:28;71098.94;;;-148.52;52.64
3254;BME280;1639;42.804;23.342;2022-07-06T11:31:58;71109.25;;;-148.52;51.81
3254;BME280;1639;42.804;23.342;2022-07-06T11:34:32;71090.66;;;-148.52;50.74
3254;BME280;1639;42.804;23.342;2022-07-06T11:39:35;71082.41;;;-148.52;52.13
3254;BME280;1639;42.804;23.342;2022-07-06T11:42:02;71065.84;;;-148.52;50.52
3254;BME280;1639;42.804;23.342;2022-07-06T11:44:29;71045.19;;;-148.52;49.10
3254;BME280;1639;42.804;23.342;2022-07-06T11:46:54;71065.84;;;-148.52;50.13
3254;BME280;1639;42.804;23.342;2022-07-06T11:49:21;71061.72;;;-148.52;51.37
3254;BME280;1639;42.804;23.342;2022-07-06T11:51:47;71032.78;;;-148.52;50.32
3254;BME280;1639;42.804;23.342;2022-07-06T11:54:16;71022.44;;;-148.52;48.84
3254;BME280;1639;42.804;23.342;2022-07-06T11:56:52;71010.03;;;-148.52;49.85
3254;BME280;1639;42.804;23.342;2022-07-06T11:59:22;71022.44;;;-148.52;48.33
3254;BME280;1639;42.804;23.342;2022-07-06T12:01:48;71012.09;;;-148.52;47.68
3254;BME280;1639;42.804;23.342;2022-07-06T12:04:13;71003.84;;;-148.52;46.74
3254;BME280;1639;42.804;23.342;2022-07-06T12:06:39;71001.78;;;-148.52;45.08
3254;BME280;1639;42.804;23.342;2022-07-06T12:09:04;70991.44;;;-148.52;45.83
3254;BME280;1639;42.804;23.342;2022-07-06T12:11:34;70987.31;;;-148.52;46.11
3254;BME280;1639;42.804;23.342;2022-07-06T12:14:13;70964.56;;;-148.52;46.62
3254;BME280;1639;42.804;23.342;2022-07-06T12:16:39;70941.81;;;-148.52;47.10
3254;BME280;1639;42.804;23.342;2022-07-06T12:19:05;70983.16;;;-148.52;45.40
3254;BME280;1639;42.804;23.342;2022-07-06T12:21:31;70995.56;;;-148.52;45.40
3254;BME280;1639;42.804;23.342;2022-07-06T12:23:57;70987.31;;;-148.52;46.08
3254;BME280;1639;42.804;23.342;2022-07-06T12:26:24;70962.50;;;-148.52;45.27
3254;BME280;1639;42.804;23.342;2022-07-06T12:31:58;70968.69;;;-148.52;45.99
3254;BME280;1639;42.804;23.342;2022-07-06T12:34:27;70968.69;;;-148.52;43.96
3254;BME280;1639;42.804;23.342;2022-07-06T12:36:57;71024.50;;;-148.52;45.29
3254;BME280;1639;42.804;23.342;2022-07-06T12:39:27;71041.03;;;-148.52;46.24
3254;BME280;1639;42.804;23.342;2022-07-06T12:42:01;71070.00;;;-148.52;45.63
3254;BME280;1639;42.804;23.342;2022-07-06T12:44:27;71082.41;;;-148.52;46.89
3254;BME280;1639;42.804;23.342;2022-07-06T12:49:27;71086.53;;;-148.52;45.59
3254;BME280;1639;42.804;23.342;2022-07-06T12:54:19;71086.53;;;-148.52;45.36